Acadia Valley, Canada
Current Conditions -  °F | °C
As of 6:00 PM on Thursday 18 Dec 2014 (Local Time) from CYKY Reporting Station
Moderate Fog Moderate Fog  
Wind Chill: -11°   Ceiling: 200
Heat Index: -11°   Visibility: 0.12mi
Dew Point: -12°   Wind: 2mph
Humidity: 92%   Direction: NA
Pressure: 29.87"   Gusts: NA
Location:  51.15°N, 110.2°W
Report Text: CYKY 190100Z VRB02KT 1/8SM FZFG VV002 M11/M12 A2987 RMK FG8 SLP162
Loading
Personal Weather Stations






























Interactive Weather Map New forecast layout! Learn more

10-Day Weather Forecast

Advertisements
Track Severe Weather on mobile